sensor_id;sensor_type;location;lat;lon;timestamp;pressure;altitude;pressure_sealevel;temperature;humidity
21011;BME280;10663;42.714;23.274;2023-02-28T00:00:28;95244.13;;;5.87;100.00
21011;BME280;10663;42.714;23.274;2023-02-28T00:01:58;95233.63;;;5.87;100.00
21011;BME280;10663;42.714;23.274;2023-02-28T00:03:29;95241.31;;;5.89;100.00
21011;BME280;10663;42.714;23.274;2023-02-28T00:05:00;95238.47;;;5.90;100.00
21011;BME280;10663;42.714;23.274;2023-02-28T00:06:31;95241.72;;;5.86;100.00
21011;BME280;10663;42.714;23.274;2023-02-28T00:08:02;95240.19;;;5.78;100.00
21011;BME280;10663;42.714;23.274;2023-02-28T00:09:35;95251.94;;;5.76;100.00
21011;BME280;10663;42.714;23.274;2023-02-28T00:52:02;95259.91;;;6.35;100.00
21011;BME280;10663;42.714;23.274;2023-02-28T00:53:33;95259.81;;;6.42;100.00
21011;BME280;10663;42.714;23.274;2023-02-28T00:55:04;95268.41;;;6.19;100.00
21011;BME280;10663;42.714;23.274;2023-02-28T00:56:35;95270.34;;;5.94;100.00
21011;BME280;10663;42.714;23.274;2023-02-28T00:58:06;95268.81;;;5.86;100.00
21011;BME280;10663;42.714;23.274;2023-02-28T00:59:37;95261.81;;;5.98;100.00
21011;BME280;10663;42.714;23.274;2023-02-28T01:01:10;95265.09;;;5.94;100.00
21011;BME280;10663;42.714;23.274;2023-02-28T01:02:42;95259.31;;;6.04;100.00
21011;BME280;10663;42.714;23.274;2023-02-28T01:04:14;95266.84;;;5.82;100.00
21011;BME280;10663;42.714;23.274;2023-02-28T01:05:46;95261.00;;;5.98;100.00
21011;BME280;10663;42.714;23.274;2023-02-28T01:07:17;95251.56;;;6.09;100.00
21011;BME280;10663;42.714;23.274;2023-02-28T01:08:48;95255.03;;;5.91;100.00
21011;BME280;10663;42.714;23.274;2023-02-28T01:10:19;95253.94;;;5.98;100.00
21011;BME280;10663;42.714;23.274;2023-02-28T01:11:51;95253.22;;;6.21;100.00
21011;BME280;10663;42.714;23.274;2023-02-28T01:13:22;95263.41;;;6.29;100.00
21011;BME280;10663;42.714;23.274;2023-02-28T01:14:54;95259.91;;;6.35;100.00
21011;BME280;10663;42.714;23.274;2023-02-28T01:16:26;95258.88;;;6.36;100.00
21011;BME280;10663;42.714;23.274;2023-02-28T01:17:58;95263.50;;;6.53;100.00
21011;BME280;10663;42.714;23.274;2023-02-28T01:19:29;95262.94;;;6.62;100.00
21011;BME280;10663;42.714;23.274;2023-02-28T01:21:20;95263.38;;;6.59;100.00
21011;BME280;10663;42.714;23.274;2023-02-28T01:22:51;95261.44;;;6.55;100.00
21011;BME280;10663;42.714;23.274;2023-02-28T01:24:22;95267.03;;;6.58;100.00
21011;BME280;10663;42.714;23.274;2023-02-28T01:25:53;95256.25;;;6.48;100.00
21011;BME280;10663;42.714;23.274;2023-02-28T01:27:23;95262.38;;;6.30;100.00
21011;BME280;10663;42.714;23.274;2023-02-28T01:28:54;95263.03;;;6.56;100.00
21011;BME280;10663;42.714;23.274;2023-02-28T01:30:25;95261.19;;;6.56;100.00
21011;BME280;10663;42.714;23.274;2023-02-28T01:31:56;95262.44;;;6.42;100.00
21011;BME280;10663;42.714;23.274;2023-02-28T01:33:28;95260.06;;;6.52;100.00
21011;BME280;10663;42.714;23.274;2023-02-28T01:34:59;95254.53;;;6.42;100.00
21011;BME280;10663;42.714;23.274;2023-02-28T01:36:29;95252.81;;;6.48;100.00
21011;BME280;10663;42.714;23.274;2023-02-28T01:38:01;95255.44;;;6.48;100.00
21011;BME280;10663;42.714;23.274;2023-02-28T01:39:41;95254.50;;;6.30;100.00
21011;BME280;10663;42.714;23.274;2023-02-28T01:41:33;95258.94;;;6.30;100.00
21011;BME280;10663;42.714;23.274;2023-02-28T01:46:51;95263.03;;;6.56;100.00
21011;BME280;10663;42.714;23.274;2023-02-28T01:48:26;95264.03;;;6.43;100.00
21011;BME280;10663;42.714;23.274;2023-02-28T01:49:59;95257.34;;;6.29;100.00
21011;BME280;10663;42.714;23.274;2023-02-28T01:51:40;95260.22;;;6.27;100.00
21011;BME280;10663;42.714;23.274;2023-02-28T01:53:21;95260.56;;;6.31;100.00
21011;BME280;10663;42.714;23.274;2023-02-28T01:54:55;95254.41;;;6.37;100.00
21011;BME280;10663;42.714;23.274;2023-02-28T01:56:30;95254.97;;;6.27;100.00
21011;BME280;10663;42.714;23.274;2023-02-28T01:58:05;95256.00;;;6.38;100.00
21011;BME280;10663;42.714;23.274;2023-02-28T02:01:21;95261.44;;;6.55;100.00
21011;BME280;10663;42.714;23.274;2023-02-28T02:02:56;95262.59;;;6.59;100.00
21011;BME280;10663;42.714;23.274;2023-02-28T02:04:38;95261.59;;;6.71;100.00
21011;BME280;10663;42.714;23.274;2023-02-28T02:06:09;95263.44;;;6.83;100.00
21011;BME280;10663;42.714;23.274;2023-02-28T02:07:42;95262.72;;;6.75;100.00
21011;BME280;10663;42.714;23.274;2023-02-28T02:09:14;95264.09;;;6.78;100.00
21011;BME280;10663;42.714;23.274;2023-02-28T02:10:50;95264.69;;;6.80;100.00
21011;BME280;10663;42.714;23.274;2023-02-28T02:15:57;95247.41;;;6.84;100.00
21011;BME280;10663;42.714;23.274;2023-02-28T02:17:41;95256.78;;;6.80;100.00
21011;BME280;10663;42.714;23.274;2023-02-28T02:25:32;95260.66;;;6.78;100.00
21011;BME280;10663;42.714;23.274;2023-02-28T02:31:29;95249.31;;;6.65;100.00
21011;BME280;10663;42.714;23.274;2023-02-28T02:39:49;95259.91;;;6.47;100.00
21011;BME280;10663;42.714;23.274;2023-02-28T02:41:36;95257.22;;;6.54;100.00
21011;BME280;10663;42.714;23.274;2023-02-28T02:43:16;95266.44;;;6.45;100.00
21011;BME280;10663;42.714;23.274;2023-02-28T02:44:55;95260.94;;;6.34;100.00
21011;BME280;10663;42.714;23.274;2023-02-28T02:46:35;95266.44;;;6.45;100.00
21011;BME280;10663;42.714;23.274;2023-02-28T02:48:12;95259.91;;;6.35;100.00
21011;BME280;10663;42.714;23.274;2023-02-28T02:49:49;95264.69;;;6.38;100.00
21011;BME280;10663;42.714;23.274;2023-02-28T02:51:22;95262.78;;;6.46;100.00
21011;BME280;10663;42.714;23.274;2023-02-28T02:52:58;95263.22;;;6.43;100.00
21011;BME280;10663;42.714;23.274;2023-02-28T02:54:37;95260.88;;;6.23;100.00
21011;BME280;10663;42.714;23.274;2023-02-28T02:56:10;95272.88;;;6.19;100.00
21011;BME280;10663;42.714;23.274;2023-02-28T02:57:47;95270.22;;;6.37;100.00
21011;BME280;10663;42.714;23.274;2023-02-28T02:59:21;95262.31;;;6.37;100.00
21011;BME280;10663;42.714;23.274;2023-02-28T03:00:58;95257.53;;;6.46;100.00
21011;BME280;10663;42.714;23.274;2023-02-28T03:02:31;95261.25;;;6.26;100.00
21011;BME280;10663;42.714;23.274;2023-02-28T03:04:11;95272.59;;;6.38;100.00
21011;BME280;10663;42.714;23.274;2023-02-28T03:05:47;95277.50;;;6.35;100.00
21011;BME280;10663;42.714;23.274;2023-02-28T03:07:18;95269.66;;;6.17;100.00
21011;BME280;10663;42.714;23.274;2023-02-28T03:08:49;95269.94;;;6.27;100.00
21011;BME280;10663;42.714;23.274;2023-02-28T03:10:39;95275.94;;;6.46;100.00
21011;BME280;10663;42.714;23.274;2023-02-28T03:12:12;95282.78;;;6.47;100.00
21011;BME280;10663;42.714;23.274;2023-02-28T03:19:47;95283.34;;;6.79;100.00
21011;BME280;10663;42.714;23.274;2023-02-28T03:23:48;95291.69;;;6.75;100.00
21011;BME280;10663;42.714;23.274;2023-02-28T03:25:35;95297.69;;;7.06;100.00
21011;BME280;10663;42.714;23.274;2023-02-28T03:27:11;95305.47;;;7.12;100.00
21011;BME280;10663;42.714;23.274;2023-02-28T03:28:51;95300.66;;;6.98;100.00
21011;BME280;10663;42.714;23.274;2023-02-28T03:30:47;95302.47;;;6.97;100.00
21011;BME280;10663;42.714;23.274;2023-02-28T03:32:26;95299.25;;;6.95;100.00
21011;BME280;10663;42.714;23.274;2023-02-28T03:34:41;95307.88;;;6.91;100.00
21011;BME280;10663;42.714;23.274;2023-02-28T03:36:05;95308.31;;;6.99;100.00
21011;BME280;10663;42.714;23.274;2023-02-28T03:37:40;95309.81;;;7.07;100.00
21011;BME280;10663;42.714;23.274;2023-02-28T03:39:35;95310.75;;;7.01;100.00
21011;BME280;10663;42.714;23.274;2023-02-28T03:41:20;95311.03;;;6.93;100.00
21011;BME280;10663;42.714;23.274;2023-02-28T03:42:57;95310.50;;;7.02;100.00
21011;BME280;10663;42.714;23.274;2023-02-28T03:44:40;95312.31;;;6.90;100.00
21011;BME280;10663;42.714;23.274;2023-02-28T03:46:16;95305.56;;;6.94;100.00
21011;BME280;10663;42.714;23.274;2023-02-28T03:47:59;95309.38;;;7.10;100.00
21011;BME280;10663;42.714;23.274;2023-02-28T03:49:38;95311.75;;;7.11;100.00
21011;BME280;10663;42.714;23.274;2023-02-28T03:51:17;95319.22;;;7.14;100.00
21011;BME280;10663;42.714;23.274;2023-02-28T03:52:55;95317.72;;;7.07;100.00
21011;BME280;10663;42.714;23.274;2023-02-28T03:54:34;95318.16;;;7.04;100.00
21011;BME280;10663;42.714;23.274;2023-02-28T03:56:20;95315.66;;;6.97;100.00
21011;BME280;10663;42.714;23.274;2023-02-28T03:59:56;95322.44;;;7.17;100.00
21011;BME280;10663;42.714;23.274;2023-02-28T04:01:42;95327.13;;;7.14;100.00
21011;BME280;10663;42.714;23.274;2023-02-28T04:03:14;95325.19;;;7.10;100.00
21011;BME280;10663;42.714;23.274;2023-02-28T04:04:45;95325.19;;;7.10;100.00
21011;BME280;10663;42.714;23.274;2023-02-28T04:06:20;95329.75;;;7.14;100.00
21011;BME280;10663;42.714;23.274;2023-02-28T04:07:52;95323.81;;;7.19;100.00
21011;BME280;10663;42.714;23.274;2023-02-28T04:09:25;95315.31;;;7.05;100.00
21011;BME280;10663;42.714;23.274;2023-02-28T04:11:18;95315.53;;;7.04;100.00
21011;BME280;10663;42.714;23.274;2023-02-28T04:12:50;95318.59;;;6.89;100.00
21011;BME280;10663;42.714;23.274;2023-02-28T04:14:21;95318.38;;;7.02;100.00
21011;BME280;10663;42.714;23.274;2023-02-28T04:15:52;95319.78;;;7.05;100.00
21011;BME280;10663;42.714;23.274;2023-02-28T04:17:23;95320.56;;;7.05;100.00
21011;BME280;10663;42.714;23.274;2023-02-28T04:18:55;95313.69;;;7.04;100.00
21011;BME280;10663;42.714;23.274;2023-02-28T04:20:32;95317.84;;;7.00;100.00
21011;BME280;10663;42.714;23.274;2023-02-28T04:22:03;95315.56;;;7.16;100.00
21011;BME280;10663;42.714;23.274;2023-02-28T04:23:34;95317.03;;;7.00;100.00
21011;BME280;10663;42.714;23.274;2023-02-28T04:25:05;95323.31;;;6.99;100.00
21011;BME280;10663;42.714;23.274;2023-02-28T04:26:36;95316.91;;;6.95;100.00
21011;BME280;10663;42.714;23.274;2023-02-28T04:28:07;95318.69;;;6.71;100.00
21011;BME280;10663;42.714;23.274;2023-02-28T04:29:38;95320.06;;;6.73;100.00
21011;BME280;10663;42.714;23.274;2023-02-28T04:31:09;95318.63;;;6.59;100.00
21011;BME280;10663;42.714;23.274;2023-02-28T04:32:40;95326.41;;;6.54;100.00
21011;BME280;10663;42.714;23.274;2023-02-28T04:34:11;95326.31;;;6.61;100.00
21011;BME280;10663;42.714;23.274;2023-02-28T04:35:42;95320.03;;;6.62;100.00
21011;BME280;10663;42.714;23.274;2023-02-28T04:37:12;95325.88;;;6.64;100.00
21011;BME280;10663;42.714;23.274;2023-02-28T04:38:44;95320.94;;;6.37;100.00
21011;BME280;10663;42.714;23.274;2023-02-28T04:40:15;95326.84;;;6.51;100.00
21011;BME280;10663;42.714;23.274;2023-02-28T04:41:46;95331.09;;;6.52;100.00
21011;BME280;10663;42.714;23.274;2023-02-28T04:43:17;95325.72;;;6.59;100.00
21011;BME280;10663;42.714;23.274;2023-02-28T04:44:48;95325.06;;;6.63;100.00
21011;BME280;10663;42.714;23.274;2023-02-28T04:46:19;95327.38;;;6.83;100.00
21011;BME280;10663;42.714;23.274;2023-02-28T04:47:50;95339.38;;;6.67;100.00
21011;BME280;10663;42.714;23.274;2023-02-28T04:49:21;95334.25;;;6.84;100.00
21011;BME280;10663;42.714;23.274;2023-02-28T04:50:52;95346.00;;;7.00;100.00
21011;BME280;10663;42.714;23.274;2023-02-28T04:52:22;95343.97;;;6.72;100.00
21011;BME280;10663;42.714;23.274;2023-02-28T04:53:53;95347.31;;;6.79;100.00
21011;BME280;10663;42.714;23.274;2023-02-28T04:55:25;95347.47;;;6.96;100.00
21011;BME280;10663;42.714;23.274;2023-02-28T04:56:56;95350.53;;;6.93;100.00
21011;BME280;10663;42.714;23.274;2023-02-28T04:58:27;95346.75;;;6.89;100.00
21011;BME280;10663;42.714;23.274;2023-02-28T04:59:58;95351.38;;;7.05;100.00
21011;BME280;10663;42.714;23.274;2023-02-28T05:01:33;95347.03;;;7.10;100.00
21011;BME280;10663;42.714;23.274;2023-02-28T05:03:05;95347.97;;;7.16;100.00
21011;BME280;10663;42.714;23.274;2023-02-28T05:04:36;95348.88;;;7.22;100.00
21011;BME280;10663;42.714;23.274;2023-02-28T05:06:08;95348.44;;;7.25;99.89
21011;BME280;10663;42.714;23.274;2023-02-28T05:07:39;95343.28;;;7.18;99.77
21011;BME280;10663;42.714;23.274;2023-02-28T05:09:10;95347.94;;;7.04;99.66
21011;BME280;10663;42.714;23.274;2023-02-28T05:10:44;95352.00;;;6.77;100.00
21011;BME280;10663;42.714;23.274;2023-02-28T05:12:15;95353.00;;;6.76;100.00
21011;BME280;10663;42.714;23.274;2023-02-28T05:13:46;95349.47;;;6.70;100.00
21011;BME280;10663;42.714;23.274;2023-02-28T05:15:18;95344.41;;;6.69;100.00
21011;BME280;10663;42.714;23.274;2023-02-28T05:16:48;95344.91;;;6.78;100.00
21011;BME280;10663;42.714;23.274;2023-02-28T05:18:19;95350.75;;;6.80;100.00
21011;BME280;10663;42.714;23.274;2023-02-28T05:19:50;95344.00;;;6.84;100.00
21011;BME280;10663;42.714;23.274;2023-02-28T05:21:27;95346.41;;;6.85;100.00
21011;BME280;10663;42.714;23.274;2023-02-28T05:22:59;95347.09;;;6.92;100.00
21011;BME280;10663;42.714;23.274;2023-02-28T05:24:31;95358.56;;;6.98;100.00
21011;BME280;10663;42.714;23.274;2023-02-28T05:26:02;95365.31;;;6.94;99.95
21011;BME280;10663;42.714;23.274;2023-02-28T05:27:33;95364.28;;;6.95;100.00
21011;BME280;10663;42.714;23.274;2023-02-28T05:29:04;95358.41;;;6.81;100.00
21011;BME280;10663;42.714;23.274;2023-02-28T05:30:35;95364.59;;;6.87;100.00
21011;BME280;10663;42.714;23.274;2023-02-28T05:32:06;95372.50;;;6.87;100.00
21011;BME280;10663;42.714;23.274;2023-02-28T05:33:37;95372.28;;;6.88;100.00
21011;BME280;10663;42.714;23.274;2023-02-28T05:35:09;95373.31;;;6.87;100.00
21011;BME280;10663;42.714;23.274;2023-02-28T05:36:41;95368.41;;;6.91;100.00
21011;BME280;10663;42.714;23.274;2023-02-28T05:38:12;95375.72;;;6.89;100.00
21011;BME280;10663;42.714;23.274;2023-02-28T05:39:43;95382.28;;;6.98;100.00
21011;BME280;10663;42.714;23.274;2023-02-28T05:41:14;95382.84;;;7.00;100.00
21011;BME280;10663;42.714;23.274;2023-02-28T05:42:45;95379.91;;;7.08;100.00
21011;BME280;10663;42.714;23.274;2023-02-28T05:44:16;95382.13;;;6.81;100.00
21011;BME280;10663;42.714;23.274;2023-02-28T05:45:47;95378.56;;;6.87;100.00
21011;BME280;10663;42.714;23.274;2023-02-28T05:47:18;95379.75;;;6.91;100.00
21011;BME280;10663;42.714;23.274;2023-02-28T05:48:48;95380.56;;;7.03;100.00
21011;BME280;10663;42.714;23.274;2023-02-28T05:50:19;95378.69;;;6.92;100.00
21011;BME280;10663;42.714;23.274;2023-02-28T05:51:50;95382.38;;;7.03;100.00
21011;BME280;10663;42.714;23.274;2023-02-28T05:53:21;95376.78;;;7.11;100.00
21011;BME280;10663;42.714;23.274;2023-02-28T05:54:52;95376.69;;;7.06;100.00
21011;BME280;10663;42.714;23.274;2023-02-28T05:56:23;95378.75;;;7.16;100.00
21011;BME280;10663;42.714;23.274;2023-02-28T05:57:54;95384.47;;;7.12;100.00
21011;BME280;10663;42.714;23.274;2023-02-28T05:59:25;95381.63;;;7.14;100.00
21011;BME280;10663;42.714;23.274;2023-02-28T06:01:00;95389.03;;;7.05;100.00
21011;BME280;10663;42.714;23.274;2023-02-28T06:02:31;95382.97;;;7.05;100.00
21011;BME280;10663;42.714;23.274;2023-02-28T06:04:04;95385.63;;;7.17;100.00
21011;BME280;10663;42.714;23.274;2023-02-28T06:05:35;95388.06;;;7.30;100.00
21011;BME280;10663;42.714;23.274;2023-02-28T06:07:06;95386.13;;;7.48;100.00
21011;BME280;10663;42.714;23.274;2023-02-28T06:08:37;95379.84;;;7.49;99.88
21011;BME280;10663;42.714;23.274;2023-02-28T06:10:09;95388.91;;;7.54;99.31
21011;BME280;10663;42.714;23.274;2023-02-28T06:11:41;95384.19;;;7.67;99.00
21011;BME280;10663;42.714;23.274;2023-02-28T06:13:12;95383.03;;;7.75;98.24
21011;BME280;10663;42.714;23.274;2023-02-28T06:14:43;95380.41;;;7.75;98.64
21011;BME280;10663;42.714;23.274;2023-02-28T06:16:14;95377.56;;;7.65;98.32
21011;BME280;10663;42.714;23.274;2023-02-28T06:17:44;95381.09;;;7.59;98.92
21011;BME280;10663;42.714;23.274;2023-02-28T06:19:15;95382.59;;;7.55;99.29
21011;BME280;10663;42.714;23.274;2023-02-28T06:21:05;95381.97;;;7.29;99.75
21011;BME280;10663;42.714;23.274;2023-02-28T06:22:36;95390.25;;;7.44;99.47
21011;BME280;10663;42.714;23.274;2023-02-28T06:24:07;95388.75;;;7.48;99.61
21011;BME280;10663;42.714;23.274;2023-02-28T06:25:44;95382.59;;;7.55;99.04
21011;BME280;10663;42.714;23.274;2023-02-28T06:27:15;95399.66;;;7.75;99.12
21011;BME280;10663;42.714;23.274;2023-02-28T06:28:46;95386.72;;;7.85;98.12
21011;BME280;10663;42.714;23.274;2023-02-28T06:30:17;95391.75;;;7.75;97.17
21011;BME280;10663;42.714;23.274;2023-02-28T06:31:48;95390.06;;;7.81;97.27
21011;BME280;10663;42.714;23.274;2023-02-28T06:33:19;95392.22;;;7.61;97.96
21011;BME280;10663;42.714;23.274;2023-02-28T06:34:50;95389.34;;;7.50;97.57
21011;BME280;10663;42.714;23.274;2023-02-28T06:36:21;95398.97;;;7.57;98.10
21011;BME280;10663;42.714;23.274;2023-02-28T06:37:52;95407.13;;;7.55;98.01
21011;BME280;10663;42.714;23.274;2023-02-28T06:39:23;95401.38;;;7.70;97.53
21011;BME280;10663;42.714;23.274;2023-02-28T06:40:58;95407.34;;;7.65;96.70
21011;BME280;10663;42.714;23.274;2023-02-28T06:42:29;95409.88;;;7.60;96.85
21011;BME280;10663;42.714;23.274;2023-02-28T06:44:01;95406.88;;;7.57;97.44
21011;BME280;10663;42.714;23.274;2023-02-28T06:45:32;95409.97;;;7.65;97.53
21011;BME280;10663;42.714;23.274;2023-02-28T06:47:04;95415.38;;;7.70;97.17
21011;BME280;10663;42.714;23.274;2023-02-28T06:48:35;95408.47;;;7.93;96.05
21011;BME280;10663;42.714;23.274;2023-02-28T06:50:11;95410.19;;;7.75;96.59
21011;BME280;10663;42.714;23.274;2023-02-28T06:51:43;95407.94;;;7.91;96.27
21011;BME280;10663;42.714;23.274;2023-02-28T06:53:17;95404.59;;;7.83;96.37
21011;BME280;10663;42.714;23.274;2023-02-28T06:54:48;95412.28;;;7.85;96.31
21011;BME280;10663;42.714;23.274;2023-02-28T06:56:30;95407.94;;;7.91;95.73
21011;BME280;10663;42.714;23.274;2023-02-28T06:58:01;95410.31;;;7.92;96.35
21011;BME280;10663;42.714;23.274;2023-02-28T06:59:32;95417.53;;;7.97;95.87
21011;BME280;10663;42.714;23.274;2023-02-28T07:01:03;95420.41;;;8.07;95.50
21011;BME280;10663;42.714;23.274;2023-02-28T07:02:35;95415.13;;;7.95;95.72
21011;BME280;10663;42.714;23.274;2023-02-28T07:04:07;95408.03;;;7.96;95.58
21011;BME280;10663;42.714;23.274;2023-02-28T07:05:39;95411.25;;;7.86;95.95
21011;BME280;10663;42.714;23.274;2023-02-28T07:07:10;95410.56;;;7.91;95.93
21011;BME280;10663;42.714;23.274;2023-02-28T07:08:40;95411.81;;;8.00;95.33
21011;BME280;10663;42.714;23.274;2023-02-28T07:10:11;95408.47;;;8.04;95.74
21011;BME280;10663;42.714;23.274;2023-02-28T07:11:43;95408.59;;;8.09;95.30
21011;BME280;10663;42.714;23.274;2023-02-28T07:13:14;95409.19;;;8.00;95.68
21011;BME280;10663;42.714;23.274;2023-02-28T07:14:45;95403.41;;;8.14;95.61
21011;BME280;10663;42.714;23.274;2023-02-28T07:16:15;95412.38;;;8.13;95.39
21011;BME280;10663;42.714;23.274;2023-02-28T07:17:46;95405.47;;;8.12;95.67
21011;BME280;10663;42.714;23.274;2023-02-28T07:19:17;95409.50;;;8.03;95.11
21011;BME280;10663;42.714;23.274;2023-02-28T07:20:48;95412.63;;;8.00;95.60
21011;BME280;10663;42.714;23.274;2023-02-28T07:22:19;95417.53;;;7.85;96.25
21011;BME280;10663;42.714;23.274;2023-02-28T07:23:50;95417.19;;;8.16;95.54
21011;BME280;10663;42.714;23.274;2023-02-28T07:25:23;95411.56;;;8.24;95.38
21011;BME280;10663;42.714;23.274;2023-02-28T07:26:55;95409.19;;;8.00;95.50
21011;BME280;10663;42.714;23.274;2023-02-28T07:28:26;95408.69;;;8.26;94.76
21011;BME280;10663;42.714;23.274;2023-02-28T07:29:57;95414.50;;;8.51;94.76
21011;BME280;10663;42.714;23.274;2023-02-28T07:31:32;95407.75;;;8.55;93.53
21011;BME280;10663;42.714;23.274;2023-02-28T07:33:02;95411.06;;;8.51;93.20
21011;BME280;10663;42.714;23.274;2023-02-28T07:34:34;95414.66;;;8.45;93.00
21011;BME280;10663;42.714;23.274;2023-02-28T07:36:07;95409.81;;;8.42;93.12
21011;BME280;10663;42.714;23.274;2023-02-28T07:37:39;95405.47;;;8.24;93.88
21011;BME280;10663;42.714;23.274;2023-02-28T07:39:13;95408.47;;;8.16;94.31
21011;BME280;10663;42.714;23.274;2023-02-28T07:40:44;95411.31;;;8.26;94.15
21011;BME280;10663;42.714;23.274;2023-02-28T07:42:14;95412.91;;;8.39;93.99
21011;BME280;10663;42.714;23.274;2023-02-28T07:43:46;95415.31;;;8.52;93.45
21011;BME280;10663;42.714;23.274;2023-02-28T07:45:17;95415.09;;;8.42;93.32
21011;BME280;10663;42.714;23.274;2023-02-28T07:46:48;95416.47;;;8.44;93.23
21011;BME280;10663;42.714;23.274;2023-02-28T07:48:18;95414.84;;;8.55;93.42
21011;BME280;10663;42.714;23.274;2023-02-28T07:49:49;95411.50;;;8.59;93.13
21011;BME280;10663;42.714;23.274;2023-02-28T07:51:22;95408.72;;;8.66;92.83
21011;BME280;10663;42.714;23.274;2023-02-28T07:52:52;95410.66;;;8.71;92.86
21011;BME280;10663;42.714;23.274;2023-02-28T07:54:23;95402.25;;;9.02;91.29
21011;BME280;10663;42.714;23.274;2023-02-28T07:55:56;95394.47;;;8.95;91.50
21011;BME280;10663;42.714;23.274;2023-02-28T07:57:27;95404.44;;;9.22;90.08
21011;BME280;10663;42.714;23.274;2023-02-28T07:58:57;95400.56;;;9.41;89.71
21011;BME280;10663;42.714;23.274;2023-02-28T08:00:28;95406.41;;;9.26;89.74
21011;BME280;10663;42.714;23.274;2023-02-28T08:01:59;95406.00;;;9.34;89.46
21011;BME280;10663;42.714;23.274;2023-02-28T08:03:30;95400.47;;;9.53;88.54
21011;BME280;10663;42.714;23.274;2023-02-28T08:05:01;95395.38;;;9.46;88.70
21011;BME280;10663;42.714;23.274;2023-02-28T08:06:32;95401.03;;;9.38;89.42
21011;BME280;10663;42.714;23.274;2023-02-28T08:08:03;95396.53;;;9.22;89.84
21011;BME280;10663;42.714;23.274;2023-02-28T08:09:34;95397.59;;;9.37;89.63
21011;BME280;10663;42.714;23.274;2023-02-28T08:11:05;95400.88;;;9.45;88.91
21011;BME280;10663;42.714;23.274;2023-02-28T08:12:36;95397.66;;;9.59;88.63
21011;BME280;10663;42.714;23.274;2023-02-28T08:14:07;95402.25;;;9.64;88.15
21011;BME280;10663;42.714;23.274;2023-02-28T08:15:40;95404.31;;;9.79;87.54
21011;BME280;10663;42.714;23.274;2023-02-28T08:17:11;95413.34;;;9.99;86.12
21011;BME280;10663;42.714;23.274;2023-02-28T08:18:43;95407.00;;;10.17;86.10
21011;BME280;10663;42.714;23.274;2023-02-28T08:20:14;95414.78;;;10.24;85.03
21011;BME280;10663;42.714;23.274;2023-02-28T08:21:45;95414.38;;;10.15;84.81
21011;BME280;10663;42.714;23.274;2023-02-28T08:23:16;95410.19;;;10.02;85.39
21011;BME280;10663;42.714;23.274;2023-02-28T08:24:47;95417.03;;;9.98;85.93
21011;BME280;10663;42.714;23.274;2023-02-28T08:26:19;95421.19;;;9.94;86.32
21011;BME280;10663;42.714;23.274;2023-02-28T08:27:52;95416.25;;;9.81;86.56
21011;BME280;10663;42.714;23.274;2023-02-28T08:29:23;95416.91;;;9.71;87.14
21011;BME280;10663;42.714;23.274;2023-02-28T08:30:54;95410.06;;;9.25;88.40
21011;BME280;10663;42.714;23.274;2023-02-28T08:32:25;95414.56;;;9.25;88.62
21011;BME280;10663;42.714;23.274;2023-02-28T08:33:56;95418.00;;;9.25;89.77
21011;BME280;10663;42.714;23.274;2023-02-28T08:35:29;95415.03;;;9.38;89.77
21011;BME280;10663;42.714;23.274;2023-02-28T08:37:00;95414.50;;;8.91;90.71
21011;BME280;10663;42.714;23.274;2023-02-28T08:38:31;95416.84;;;9.05;90.71
21011;BME280;10663;42.714;23.274;2023-02-28T08:40:02;95409.59;;;9.28;89.99
21011;BME280;10663;42.714;23.274;2023-02-28T08:41:35;95407.59;;;9.19;89.53
21011;BME280;10663;42.714;23.274;2023-02-28T08:43:05;95413.91;;;9.18;89.84
21011;BME280;10663;42.714;23.274;2023-02-28T08:44:36;95413.78;;;9.41;89.67
21011;BME280;10663;42.714;23.274;2023-02-28T08:46:08;95410.00;;;9.37;89.70
21011;BME280;10663;42.714;23.274;2023-02-28T08:47:41;95417.94;;;9.37;90.03
21011;BME280;10663;42.714;23.274;2023-02-28T08:49:12;95409.13;;;9.31;90.28
21011;BME280;10663;42.714;23.274;2023-02-28T08:50:43;95410.31;;;9.24;90.09
21011;BME280;10663;42.714;23.274;2023-02-28T08:52:14;95416.66;;;9.39;89.12
21011;BME280;10663;42.714;23.274;2023-02-28T08:53:45;95410.88;;;9.43;89.31
21011;BME280;10663;42.714;23.274;2023-02-28T08:55:16;95411.47;;;9.45;88.68
21011;BME280;10663;42.714;23.274;2023-02-28T08:56:47;95412.56;;;9.65;88.41
21011;BME280;10663;42.714;23.274;2023-02-28T08:58:18;95420.03;;;9.35;88.85
21011;BME280;10663;42.714;23.274;2023-02-28T08:59:49;95420.66;;;9.42;89.03
21011;BME280;10663;42.714;23.274;2023-02-28T09:01:22;95421.06;;;9.67;88.83
21011;BME280;10663;42.714;23.274;2023-02-28T09:02:53;95417.56;;;9.62;88.81
21011;BME280;10663;42.714;23.274;2023-02-28T09:04:25;95419.47;;;9.66;88.60
21011;BME280;10663;42.714;23.274;2023-02-28T09:05:58;95411.38;;;9.73;88.21
21011;BME280;10663;42.714;23.274;2023-02-28T09:07:29;95411.13;;;9.58;88.41
21011;BME280;10663;42.714;23.274;2023-02-28T09:09:00;95410.72;;;9.66;88.75
21011;BME280;10663;42.714;23.274;2023-02-28T09:10:32;95410.00;;;9.70;88.31
21011;BME280;10663;42.714;23.274;2023-02-28T09:12:03;95412.31;;;9.84;87.93
21011;BME280;10663;42.714;23.274;2023-02-28T09:13:34;95412.66;;;9.70;88.04
21011;BME280;10663;42.714;23.274;2023-02-28T09:15:05;95412.94;;;10.07;87.39
21011;BME280;10663;42.714;23.274;2023-02-28T09:16:36;95412.06;;;9.85;87.03
21011;BME280;10663;42.714;23.274;2023-02-28T09:18:07;95410.78;;;9.88;87.45
21011;BME280;10663;42.714;23.274;2023-02-28T09:19:38;95412.72;;;9.92;87.52
21011;BME280;10663;42.714;23.274;2023-02-28T09:21:16;95411.94;;;10.13;87.15
21011;BME280;10663;42.714;23.274;2023-02-28T09:22:48;95412.16;;;9.90;87.55
21011;BME280;10663;42.714;23.274;2023-02-28T09:24:19;95407.22;;;9.60;88.57
21011;BME280;10663;42.714;23.274;2023-02-28T09:25:53;95405.59;;;9.76;88.63
21011;BME280;10663;42.714;23.274;2023-02-28T09:27:24;95401.91;;;9.60;88.68